createdAt,value
2022-09-21T00:01:07.169Z,13.40
2022-09-21T00:03:33.859Z,13.40
2022-09-21T00:06:08.258Z,13.40
2022-09-21T00:08:35.070Z,13.40
2022-09-21T00:11:03.403Z,13.30
2022-09-21T00:13:30.135Z,13.20
2022-09-21T00:15:57.074Z,13.30
2022-09-21T00:18:25.043Z,13.20
2022-09-21T00:20:55.118Z,12.10
2022-09-21T00:23:21.706Z,13.10
2022-09-21T00:25:48.305Z,13.10
2022-09-21T00:28:14.890Z,13.10
2022-09-21T00:30:41.845Z,13.10
2022-09-21T00:33:08.452Z,13.10
2022-09-21T00:35:35.160Z,13.10
2022-09-21T00:38:03.283Z,13.00
2022-09-21T00:40:30.411Z,13.00
2022-09-21T00:43:14.077Z,13.00
2022-09-21T00:45:41.290Z,12.90
2022-09-21T00:48:08.212Z,12.90
2022-09-21T00:50:35.296Z,12.90
2022-09-21T00:53:04.702Z,12.80
2022-09-21T00:55:39.237Z,12.80
2022-09-21T00:58:11.548Z,12.80
2022-09-21T01:00:39.842Z,12.80
2022-09-21T01:03:07.160Z,12.80
2022-09-21T01:05:33.925Z,12.80
2022-09-21T01:08:02.220Z,12.70
2022-09-21T01:10:32.692Z,12.70
2022-09-21T01:13:25.801Z,12.60
2022-09-21T01:16:09.144Z,12.60
2022-09-21T01:18:59.826Z,12.50
2022-09-21T01:21:31.230Z,12.40
2022-09-21T01:24:50.184Z,12.40
2022-09-21T01:27:55.837Z,12.40
2022-09-21T01:30:22.783Z,12.30
2022-09-21T01:33:01.429Z,12.30
2022-09-21T01:35:32.198Z,12.30
2022-09-21T01:38:02.437Z,12.30
2022-09-21T01:40:35.808Z,12.20
2022-09-21T01:43:04.759Z,12.20
2022-09-21T01:45:34.710Z,12.10
2022-09-21T01:48:02.041Z,12.10
2022-09-21T01:50:32.929Z,12.10
2022-09-21T01:53:06.465Z,12.10
2022-09-21T01:55:40.025Z,12.00
2022-09-21T01:58:15.151Z,12.00
2022-09-21T02:00:42.279Z,12.00
2022-09-21T02:03:14.139Z,11.90
2022-09-21T02:05:41.288Z,11.90
2022-09-21T02:08:09.367Z,11.90
2022-09-21T02:10:49.758Z,11.90
2022-09-21T02:13:17.520Z,11.90
2022-09-21T02:16:12.260Z,11.90
2022-09-21T02:18:59.439Z,11.80
2022-09-21T02:21:46.235Z,11.80
2022-09-21T02:24:32.065Z,11.80
2022-09-21T02:27:08.305Z,11.70
2022-09-21T02:29:57.104Z,11.80
2022-09-21T02:32:28.336Z,11.70
2022-09-21T02:35:16.339Z,11.70
2022-09-21T02:37:56.882Z,11.60
2022-09-21T02:40:31.533Z,11.60
2022-09-21T02:43:02.159Z,11.60
2022-09-21T02:45:33.117Z,11.60
2022-09-21T02:48:02.485Z,11.50
2022-09-21T02:50:40.407Z,11.50
2022-09-21T02:53:08.356Z,11.50
2022-09-21T02:55:35.161Z,11.40
2022-09-21T02:58:04.881Z,11.40
2022-09-21T03:00:31.774Z,11.40
2022-09-21T03:02:58.392Z,11.40
2022-09-21T03:05:25.677Z,11.40
2022-09-21T03:07:52.255Z,11.40
2022-09-21T03:10:19.308Z,11.30
2022-09-21T03:12:46.828Z,11.30
2022-09-21T03:15:14.498Z,11.30
2022-09-21T03:17:41.151Z,11.20
2022-09-21T03:20:08.061Z,11.30
2022-09-21T03:22:34.700Z,11.20
2022-09-21T03:25:01.319Z,11.20
2022-09-21T03:27:27.973Z,11.20
2022-09-21T03:29:56.791Z,11.20
2022-09-21T03:32:26.829Z,11.10
2022-09-21T03:34:53.412Z,11.10
2022-09-21T03:37:20.065Z,11.10
2022-09-21T03:39:47.297Z,11.10
2022-09-21T03:42:14.063Z,11.10
2022-09-21T03:44:41.471Z,11.10
2022-09-21T03:47:08.102Z,11.00
2022-09-21T03:49:35.066Z,11.00
2022-09-21T03:52:02.249Z,11.00
2022-09-21T03:54:28.862Z,11.00
2022-09-21T03:56:55.538Z,11.00
2022-09-21T03:59:22.147Z,11.00
2022-09-21T04:01:52.099Z,11.00
2022-09-21T04:04:18.714Z,11.00
2022-09-21T04:06:46.166Z,10.90
2022-09-21T04:09:12.885Z,10.90
2022-09-21T04:11:39.548Z,10.90
2022-09-21T04:14:06.126Z,10.80
2022-09-21T04:16:32.762Z,10.80
2022-09-21T04:18:59.401Z,10.80
2022-09-21T04:21:26.404Z,10.80
2022-09-21T04:23:52.973Z,10.80
2022-09-21T04:26:27.393Z,10.70
2022-09-21T04:28:55.347Z,10.70
2022-09-21T04:31:23.618Z,10.70
2022-09-21T04:33:51.686Z,10.70
2022-09-21T04:36:18.999Z,10.70
2022-09-21T04:38:45.832Z,10.70
2022-09-21T04:41:12.873Z,10.60
2022-09-21T04:43:43.304Z,10.60
2022-09-21T04:46:12.576Z,10.60
2022-09-21T04:48:39.415Z,10.60
2022-09-21T04:51:07.813Z,10.60
2022-09-21T04:53:38.849Z,10.50
2022-09-21T04:56:06.391Z,10.50
2022-09-21T04:58:33.563Z,10.50
2022-09-21T05:01:00.612Z,10.50
2022-09-21T05:03:27.460Z,10.40
2022-09-21T05:05:56.038Z,10.40
2022-09-21T05:08:42.368Z,10.40
2022-09-21T05:11:13.056Z,10.40
2022-09-21T05:13:40.449Z,10.40
2022-09-21T05:16:07.138Z,10.30
2022-09-21T05:18:34.058Z,10.30
2022-09-21T05:21:02.271Z,10.30
2022-09-21T05:23:30.887Z,10.30
2022-09-21T05:25:58.683Z,10.30
2022-09-21T05:28:26.138Z,10.20
2022-09-21T05:31:17.051Z,10.20
2022-09-21T05:34:25.942Z,10.20
2022-09-21T05:37:07.366Z,10.20
2022-09-21T05:39:34.229Z,10.20
2022-09-21T05:42:01.072Z,10.10
2022-09-21T05:44:27.950Z,10.10
2022-09-21T05:47:04.317Z,10.10
2022-09-21T05:49:58.756Z,10.10
2022-09-21T05:52:52.318Z,10.10
2022-09-21T05:55:26.939Z,10.00
2022-09-21T05:58:01.833Z,10.00
2022-09-21T06:01:01.901Z,10.00
2022-09-21T06:03:30.310Z,10.00
2022-09-21T06:05:57.825Z,9.90
2022-09-21T06:08:25.391Z,10.00
2022-09-21T06:10:52.748Z,10.00
2022-09-21T06:13:19.615Z,10.00
2022-09-21T06:15:46.533Z,10.00
2022-09-21T06:18:17.684Z,9.90
2022-09-21T06:20:45.065Z,10.00
2022-09-21T06:23:13.404Z,9.90
2022-09-21T06:25:40.377Z,10.00
2022-09-21T06:28:12.083Z,10.00
2022-09-21T06:30:40.769Z,10.00
2022-09-21T06:33:07.746Z,10.00
2022-09-21T06:35:35.935Z,10.00
2022-09-21T06:38:06.161Z,10.00
2022-09-21T06:40:34.212Z,10.00
2022-09-21T06:43:01.968Z,10.00
2022-09-21T06:45:29.663Z,10.10
2022-09-21T06:47:56.745Z,10.10
2022-09-21T06:50:23.744Z,10.10
2022-09-21T06:52:50.419Z,10.10
2022-09-21T06:55:17.252Z,10.10
2022-09-21T06:57:43.987Z,10.20
2022-09-21T07:00:12.261Z,10.20
2022-09-21T07:02:42.337Z,10.20
2022-09-21T07:05:09.221Z,10.20
2022-09-21T07:07:36.380Z,10.30
2022-09-21T07:10:05.855Z,10.30
2022-09-21T07:12:35.284Z,10.30
2022-09-21T07:15:03.699Z,10.40
2022-09-21T07:17:34.476Z,10.40
2022-09-21T07:20:02.161Z,10.40
2022-09-21T07:22:30.005Z,10.40
2022-09-21T07:24:56.999Z,10.50
2022-09-21T07:27:25.359Z,10.50
2022-09-21T07:29:52.666Z,10.50
2022-09-21T07:32:19.824Z,10.60
2022-09-21T07:34:46.705Z,10.70
2022-09-21T07:37:14.496Z,10.70
2022-09-21T07:39:41.426Z,10.70
2022-09-21T07:42:08.466Z,10.80
2022-09-21T07:44:35.248Z,10.80
2022-09-21T07:47:03.455Z,10.90
2022-09-21T07:49:30.314Z,10.90
2022-09-21T07:52:01.484Z,11.00
2022-09-21T07:54:29.687Z,11.00
2022-09-21T07:57:17.218Z,11.10
2022-09-21T07:59:44.010Z,11.20
2022-09-21T08:02:10.926Z,11.30
2022-09-21T08:04:37.831Z,11.30
2022-09-21T08:07:05.022Z,11.40
2022-09-21T08:09:31.679Z,11.40
2022-09-21T08:12:01.908Z,11.90
2022-09-21T08:14:29.371Z,11.60
2022-09-21T08:16:56.301Z,11.80
2022-09-21T08:19:25.684Z,11.90
2022-09-21T08:21:57.287Z,12.10
2022-09-21T08:24:26.754Z,12.20
2022-09-21T08:26:55.894Z,12.20
2022-09-21T08:29:24.360Z,12.40
2022-09-21T08:31:51.985Z,12.50
2022-09-21T08:34:19.700Z,12.60
2022-09-21T08:36:46.910Z,12.70
2022-09-21T08:39:14.301Z,12.80
2022-09-21T08:41:49.985Z,12.90
2022-09-21T08:44:41.395Z,13.00
2022-09-21T08:47:22.194Z,13.20
2022-09-21T08:49:55.731Z,13.40
2022-09-21T08:52:25.050Z,13.40
2022-09-21T08:54:53.738Z,13.40
2022-09-21T08:57:20.769Z,13.60
2022-09-21T08:59:50.004Z,13.70
2022-09-21T09:02:50.265Z,13.80
2022-09-21T09:05:53.055Z,13.90
2022-09-21T09:08:38.763Z,14.00
2022-09-21T09:11:28.656Z,14.10
2022-09-21T09:14:12.936Z,14.30
2022-09-21T09:17:09.593Z,14.40
2022-09-21T09:20:06.816Z,14.50
2022-09-21T09:22:50.657Z,14.60
2022-09-21T09:25:24.722Z,14.80
2022-09-21T09:27:54.814Z,14.90
2022-09-21T09:30:25.647Z,15.00
2022-09-21T09:33:06.211Z,15.10
2022-09-21T09:35:40.695Z,15.20
2022-09-21T09:38:18.692Z,15.30
2022-09-21T09:41:21.838Z,15.40
2022-09-21T09:44:12.702Z,15.50
2022-09-21T09:47:03.028Z,15.70
2022-09-21T09:49:42.127Z,15.80
2022-09-21T09:52:12.727Z,15.80
2022-09-21T09:54:39.603Z,15.90
2022-09-21T09:57:07.275Z,16.10
2022-09-21T09:59:45.190Z,16.10
2022-09-21T10:02:18.659Z,16.20
2022-09-21T10:05:09.020Z,16.30
2022-09-21T10:07:39.082Z,16.40
2022-09-21T10:10:32.720Z,16.50
2022-09-21T10:13:21.601Z,16.60
2022-09-21T10:15:55.168Z,16.70
2022-09-21T10:18:42.983Z,16.80
2022-09-21T10:21:23.215Z,16.90
2022-09-21T10:23:57.731Z,17.00
2022-09-21T10:26:24.905Z,17.10
2022-09-21T10:28:59.978Z,17.20
2022-09-21T10:31:30.059Z,17.30
2022-09-21T10:34:15.362Z,17.40
2022-09-21T10:36:51.891Z,17.40
2022-09-21T10:39:22.625Z,17.50
2022-09-21T10:41:50.547Z,17.60
2022-09-21T10:44:19.399Z,17.70
2022-09-21T10:46:50.088Z,17.70
2022-09-21T10:49:25.842Z,17.80
2022-09-21T10:51:55.247Z,17.80
2022-09-21T10:54:28.576Z,17.90
2022-09-21T10:57:08.242Z,17.90
2022-09-21T10:59:37.409Z,18.00
2022-09-21T11:02:29.879Z,18.00
2022-09-21T11:05:20.240Z,18.10
2022-09-21T11:07:55.384Z,18.20
2022-09-21T11:10:34.303Z,18.20
2022-09-21T11:13:30.911Z,18.20
2022-09-21T11:16:12.624Z,18.40
2022-09-21T11:18:45.319Z,18.40
2022-09-21T11:21:31.521Z,18.40
2022-09-21T11:24:03.212Z,18.50
2022-09-21T11:26:35.825Z,18.60
2022-09-21T11:29:08.965Z,18.60
2022-09-21T11:32:08.132Z,18.70
2022-09-21T11:34:40.690Z,18.70
2022-09-21T11:37:29.977Z,18.80
2022-09-21T11:40:15.191Z,18.80
2022-09-21T11:43:14.525Z,18.90
2022-09-21T11:45:58.739Z,19.00
2022-09-21T11:48:35.034Z,19.00
2022-09-21T11:51:20.024Z,19.10
2022-09-21T11:54:08.491Z,19.20
2022-09-21T11:56:35.323Z,19.20
2022-09-21T11:59:16.484Z,19.30
2022-09-21T12:01:56.270Z,19.40
2022-09-21T12:04:35.147Z,19.40
2022-09-21T12:07:32.368Z,19.60
2022-09-21T12:10:45.196Z,19.60
2022-09-21T12:13:41.249Z,19.70
2022-09-21T12:16:32.292Z,19.80
2022-09-21T12:19:27.886Z,19.80
2022-09-21T12:22:09.763Z,19.90
2022-09-21T12:25:02.765Z,20.00
2022-09-21T12:27:42.236Z,20.10
2022-09-21T12:30:18.542Z,20.20
2022-09-21T12:32:50.381Z,20.30
2022-09-21T12:35:40.527Z,20.30
2022-09-21T12:38:14.220Z,20.40
2022-09-21T12:41:04.215Z,20.50
2022-09-21T12:43:43.703Z,20.60
2022-09-21T12:46:21.020Z,20.80
2022-09-21T12:48:47.782Z,20.80
2022-09-21T12:51:17.716Z,20.90
2022-09-21T12:53:50.766Z,21.00
2022-09-21T12:56:23.915Z,21.10
2022-09-21T12:59:28.763Z,21.20
2022-09-21T13:02:33.706Z,21.30
2022-09-21T13:05:19.467Z,21.50
2022-09-21T13:08:06.519Z,21.60
2022-09-21T13:10:55.723Z,21.70
2022-09-21T13:13:32.812Z,21.90
2022-09-21T13:16:00.620Z,21.90
2022-09-21T13:18:36.351Z,22.00
2022-09-21T13:21:31.177Z,22.10
2022-09-21T13:24:01.407Z,22.20
2022-09-21T13:26:52.602Z,22.30
2022-09-21T13:29:19.391Z,22.40
2022-09-21T13:31:57.919Z,22.60
2022-09-21T13:34:41.845Z,22.70
2022-09-21T13:37:11.625Z,22.80
2022-09-21T13:40:03.811Z,22.90
2022-09-21T13:42:31.074Z,23.10
2022-09-21T13:45:07.003Z,23.10
2022-09-21T13:47:40.634Z,23.20
2022-09-21T13:50:38.858Z,23.30
2022-09-21T13:53:28.711Z,23.40
2022-09-21T13:56:01.208Z,23.50
2022-09-21T13:58:35.151Z,23.60
2022-09-21T14:01:05.271Z,23.60
2022-09-21T14:03:41.352Z,23.80
2022-09-21T14:06:18.522Z,23.90
2022-09-21T14:08:52.144Z,24.00
2022-09-21T14:11:34.309Z,24.00
2022-09-21T14:14:29.501Z,24.10
2022-09-21T14:16:58.988Z,24.20
2022-09-21T14:19:27.002Z,24.30
2022-09-21T14:22:06.366Z,24.40
2022-09-21T14:24:38.493Z,24.50
2022-09-21T14:27:29.246Z,24.50
2022-09-21T14:30:22.199Z,24.70
2022-09-21T14:33:01.182Z,24.80
2022-09-21T14:35:40.731Z,24.80
2022-09-21T14:38:15.396Z,24.90
2022-09-21T14:40:48.036Z,25.00
2022-09-21T14:43:44.736Z,25.00
2022-09-21T14:46:11.809Z,25.10
2022-09-21T14:48:50.249Z,25.20
2022-09-21T14:51:47.261Z,25.20
2022-09-21T14:54:21.181Z,25.30
2022-09-21T14:57:22.116Z,25.40
2022-09-21T15:00:14.473Z,25.40
2022-09-21T15:02:43.470Z,25.50
2022-09-21T15:05:29.603Z,25.60
2022-09-21T15:08:59.942Z,25.70
2022-09-21T15:11:36.995Z,25.70
2022-09-21T15:14:37.339Z,25.70
2022-09-21T15:17:24.456Z,25.80
2022-09-21T15:19:51.567Z,25.90
2022-09-21T15:22:21.974Z,25.90
2022-09-21T15:24:57.160Z,25.90
2022-09-21T15:27:26.879Z,26.00
2022-09-21T15:29:55.397Z,26.00
2022-09-21T15:32:24.933Z,26.00
2022-09-21T15:35:02.206Z,26.10
2022-09-21T15:37:30.472Z,26.10
2022-09-21T15:40:02.608Z,26.10
2022-09-21T15:42:30.092Z,26.00
2022-09-21T15:45:16.398Z,26.20
2022-09-21T15:47:44.289Z,26.20
2022-09-21T15:50:16.919Z,26.20
2022-09-21T15:52:51.286Z,26.10
2022-09-21T15:55:21.442Z,26.20
2022-09-21T15:57:57.758Z,26.20
2022-09-21T16:00:31.769Z,26.20
2022-09-21T16:03:19.936Z,26.20
2022-09-21T16:05:50.045Z,26.20
2022-09-21T16:08:33.514Z,26.20
2022-09-21T16:11:13.303Z,26.20
2022-09-21T16:14:00.051Z,26.20
2022-09-21T16:16:27.455Z,26.10
2022-09-21T16:18:55.848Z,26.10
2022-09-21T16:21:37.690Z,26.00
2022-09-21T16:24:18.545Z,25.90
2022-09-21T16:27:00.484Z,25.80
2022-09-21T16:29:38.219Z,25.70
2022-09-21T16:32:35.741Z,25.70
2022-09-21T16:35:22.419Z,25.50
2022-09-21T16:37:49.044Z,25.40
2022-09-21T16:40:19.300Z,25.40
2022-09-21T16:42:46.423Z,25.20
2022-09-21T16:45:23.155Z,25.10
2022-09-21T16:47:50.761Z,24.90
2022-09-21T16:50:18.973Z,24.80
2022-09-21T16:52:48.445Z,24.70
2022-09-21T16:55:18.123Z,24.60
2022-09-21T16:57:46.017Z,24.50
2022-09-21T17:00:13.920Z,24.40
2022-09-21T17:02:42.658Z,24.30
2022-09-21T17:05:09.957Z,24.20
2022-09-21T17:07:36.579Z,24.00
2022-09-21T17:10:11.951Z,23.90
2022-09-21T17:12:39.349Z,23.90
2022-09-21T17:15:07.991Z,23.70
2022-09-21T17:17:34.887Z,23.60
2022-09-21T17:20:14.422Z,23.60
2022-09-21T17:22:41.246Z,23.50
2022-09-21T17:25:08.391Z,23.30
2022-09-21T17:27:35.036Z,23.30
2022-09-21T17:30:03.482Z,23.20
2022-09-21T17:32:30.214Z,23.10
2022-09-21T17:35:21.975Z,23.00
2022-09-21T17:37:48.582Z,22.90
2022-09-21T17:40:15.717Z,22.80
2022-09-21T17:42:48.278Z,22.60
2022-09-21T17:45:50.457Z,22.50
2022-09-21T17:48:21.880Z,22.30
2022-09-21T17:50:49.620Z,22.10
2022-09-21T17:53:37.198Z,21.90
2022-09-21T17:56:39.520Z,21.70
2022-09-21T17:59:09.318Z,21.70
2022-09-21T18:01:39.563Z,21.70
2022-09-21T18:04:07.346Z,21.60
2022-09-21T18:06:34.780Z,21.50
2022-09-21T18:09:02.138Z,21.40
2022-09-21T18:11:31.788Z,21.30
2022-09-21T18:14:20.271Z,21.20
2022-09-21T18:17:00.253Z,21.20
2022-09-21T18:19:32.973Z,21.10
2022-09-21T18:22:23.887Z,21.10
2022-09-21T18:24:51.173Z,21.00
2022-09-21T18:27:18.203Z,20.90
2022-09-21T18:29:45.083Z,20.90
2022-09-21T18:32:41.980Z,20.80
2022-09-21T18:35:34.694Z,20.70
2022-09-21T18:38:29.069Z,20.60
2022-09-21T18:41:14.968Z,20.50
2022-09-21T18:44:05.181Z,20.50
2022-09-21T18:46:57.839Z,20.40
2022-09-21T18:49:50.350Z,20.30
2022-09-21T18:52:47.362Z,20.10
2022-09-21T18:55:28.812Z,20.10
2022-09-21T18:57:57.134Z,20.10
2022-09-21T19:00:31.456Z,19.90
2022-09-21T19:03:16.537Z,19.80
2022-09-21T19:06:04.273Z,19.70
2022-09-21T19:08:55.453Z,19.70
2022-09-21T19:11:32.210Z,19.60
2022-09-21T19:14:11.983Z,19.50
2022-09-21T19:17:06.787Z,19.40
2022-09-21T19:19:48.772Z,19.40
2022-09-21T19:22:21.974Z,19.30
2022-09-21T19:25:00.640Z,19.20
2022-09-21T19:27:41.454Z,19.10
2022-09-21T19:30:12.815Z,19.10
2022-09-21T19:32:49.288Z,18.90
2022-09-21T19:35:33.112Z,18.90
2022-09-21T19:38:02.204Z,18.80
2022-09-21T19:40:32.268Z,18.80
2022-09-21T19:43:28.383Z,18.70
2022-09-21T19:46:17.417Z,18.60
2022-09-21T19:48:50.788Z,18.50
2022-09-21T19:51:42.827Z,18.40
2022-09-21T19:54:42.456Z,18.40
2022-09-21T19:57:33.569Z,18.30
2022-09-21T20:00:00.886Z,18.20
2022-09-21T20:02:32.715Z,18.10
2022-09-21T20:05:06.473Z,18.10
2022-09-21T20:08:03.083Z,18.00
2022-09-21T20:10:34.262Z,17.90
2022-09-21T20:13:23.664Z,17.80
2022-09-21T20:15:56.380Z,17.80
2022-09-21T20:18:34.469Z,17.70
2022-09-21T20:21:01.276Z,17.60
2022-09-21T20:23:30.205Z,17.60
2022-09-21T20:26:04.115Z,17.50
2022-09-21T20:28:31.225Z,17.40
2022-09-21T20:30:58.141Z,17.40
2022-09-21T20:33:26.983Z,17.30
2022-09-21T20:35:55.435Z,17.30
2022-09-21T20:38:23.079Z,17.20
2022-09-21T20:40:49.925Z,17.10
2022-09-21T20:43:16.675Z,17.00
2022-09-21T20:45:47.773Z,17.00
2022-09-21T20:48:14.904Z,16.90
2022-09-21T20:50:46.363Z,16.90
2022-09-21T20:53:13.654Z,16.80
2022-09-21T20:55:41.208Z,16.70
2022-09-21T20:58:11.590Z,16.70
2022-09-21T21:00:38.730Z,16.60
2022-09-21T21:03:05.626Z,16.60
2022-09-21T21:05:32.763Z,16.50
2022-09-21T21:08:01.666Z,16.50
2022-09-21T21:10:28.305Z,16.40
2022-09-21T21:12:57.765Z,16.40
2022-09-21T21:15:24.987Z,16.30
2022-09-21T21:17:52.099Z,16.30
2022-09-21T21:20:19.078Z,16.20
2022-09-21T21:22:49.061Z,16.20
2022-09-21T21:25:16.033Z,16.10
2022-09-21T21:27:42.726Z,16.10
2022-09-21T21:30:10.152Z,16.10
2022-09-21T21:32:37.546Z,16.00
2022-09-21T21:35:05.459Z,15.90
2022-09-21T21:37:32.184Z,15.90
2022-09-21T21:39:58.893Z,15.90
2022-09-21T21:42:26.351Z,15.80
2022-09-21T21:44:54.653Z,15.70
2022-09-21T21:47:38.762Z,15.70
2022-09-21T21:50:06.532Z,15.70
2022-09-21T21:52:33.205Z,15.60
2022-09-21T21:54:59.886Z,15.60
2022-09-21T21:57:26.625Z,15.50
2022-09-21T21:59:53.335Z,15.40
2022-09-21T22:02:20.281Z,15.40
2022-09-21T22:04:47.233Z,15.40
2022-09-21T22:07:13.952Z,15.30
2022-09-21T22:09:40.628Z,15.30
2022-09-21T22:12:07.765Z,15.20
2022-09-21T22:14:34.588Z,15.20
2022-09-21T22:17:01.272Z,15.10
2022-09-21T22:19:27.986Z,15.10
2022-09-21T22:21:54.880Z,15.10
2022-09-21T22:24:22.383Z,15.00
2022-09-21T22:26:49.547Z,15.00
2022-09-21T22:29:17.433Z,14.90
2022-09-21T22:31:49.472Z,14.90
2022-09-21T22:34:16.712Z,14.80
2022-09-21T22:36:44.086Z,14.80
2022-09-21T22:39:12.171Z,14.70
2022-09-21T22:41:40.562Z,14.80
2022-09-21T22:44:08.078Z,14.70
2022-09-21T22:46:35.204Z,14.60
2022-09-21T22:49:02.190Z,14.60
2022-09-21T22:51:29.784Z,14.50
2022-09-21T22:53:57.009Z,14.50
2022-09-21T22:56:25.738Z,14.50
2022-09-21T22:58:54.315Z,14.40
2022-09-21T23:01:29.503Z,14.40
2022-09-21T23:03:58.396Z,14.30
2022-09-21T23:06:28.244Z,14.30
2022-09-21T23:08:56.240Z,14.30
2022-09-21T23:11:38.043Z,14.30
2022-09-21T23:14:05.651Z,14.20
2022-09-21T23:16:32.453Z,14.10
2022-09-21T23:18:59.732Z,14.10
2022-09-21T23:21:30.185Z,14.10
2022-09-21T23:24:02.096Z,14.00
2022-09-21T23:26:30.832Z,14.00
2022-09-21T23:29:02.721Z,14.00
2022-09-21T23:31:31.426Z,13.90
2022-09-21T23:34:00.375Z,13.90
2022-09-21T23:36:28.885Z,13.90
2022-09-21T23:38:55.725Z,13.80
2022-09-21T23:41:24.030Z,13.80
2022-09-21T23:43:51.217Z,13.80
2022-09-21T23:46:24.674Z,13.70
2022-09-21T23:48:52.006Z,13.70
2022-09-21T23:51:18.713Z,13.70
2022-09-21T23:53:45.850Z,13.60
2022-09-21T23:56:17.658Z,13.60
2022-09-21T23:58:44.664Z,13.60
